createdAt,value
2022-09-21T00:00:45.408Z,99.90
2022-09-21T00:05:47.826Z,99.90
2022-09-21T00:10:50.671Z,99.90
2022-09-21T00:15:53.321Z,99.90
2022-09-21T00:20:55.694Z,99.90
2022-09-21T00:26:16.434Z,99.90
2022-09-21T00:31:18.872Z,99.90
2022-09-21T00:36:24.736Z,99.90
2022-09-21T00:41:28.916Z,99.90
2022-09-21T00:46:31.394Z,99.90
2022-09-21T00:51:34.198Z,99.90
2022-09-21T00:56:37.430Z,99.90
2022-09-21T01:01:39.903Z,99.90
2022-09-21T01:06:42.777Z,99.90
2022-09-21T01:12:05.471Z,99.90
2022-09-21T01:17:13.402Z,99.90
2022-09-21T01:22:54.054Z,99.90
2022-09-21T01:28:23.589Z,99.90
2022-09-21T01:33:36.264Z,99.90
2022-09-21T01:38:49.040Z,99.90
2022-09-21T01:43:55.868Z,99.90
2022-09-21T01:49:20.315Z,99.90
2022-09-21T01:54:28.541Z,99.90
2022-09-21T01:59:49.225Z,99.90
2022-09-21T02:04:51.883Z,99.90
2022-09-21T02:09:56.179Z,99.90
2022-09-21T02:14:59.920Z,99.90
2022-09-21T02:20:24.212Z,99.90
2022-09-21T02:25:48.927Z,99.90
2022-09-21T02:31:00.953Z,99.90
2022-09-21T02:36:13.840Z,99.90
2022-09-21T02:41:38.140Z,99.90
2022-09-21T02:46:46.076Z,99.90
2022-09-21T02:51:51.972Z,99.90
2022-09-21T02:56:55.602Z,99.90
2022-09-21T03:01:58.044Z,99.90
2022-09-21T03:07:00.435Z,99.90
2022-09-21T03:12:02.882Z,99.90
2022-09-21T03:17:05.257Z,99.90
2022-09-21T03:22:07.665Z,99.90
2022-09-21T03:27:10.066Z,99.90
2022-09-21T03:32:12.614Z,99.90
2022-09-21T03:37:15.098Z,99.90
2022-09-21T03:42:17.633Z,99.90
2022-09-21T03:47:20.737Z,99.90
2022-09-21T03:52:23.139Z,99.90
2022-09-21T03:57:25.525Z,99.90
2022-09-21T04:02:27.947Z,99.90
2022-09-21T04:07:34.632Z,99.90
2022-09-21T04:12:37.574Z,99.90
2022-09-21T04:17:40.023Z,99.90
2022-09-21T04:22:43.670Z,99.90
2022-09-21T04:27:48.087Z,99.90
2022-09-21T04:32:50.471Z,99.90
2022-09-21T04:37:55.851Z,99.90
2022-09-21T04:42:59.238Z,99.90
2022-09-21T04:48:01.798Z,99.90
2022-09-21T04:53:04.528Z,99.90
2022-09-21T04:58:06.929Z,99.90
2022-09-21T05:03:09.418Z,99.90
2022-09-21T05:08:11.750Z,99.90
2022-09-21T05:13:19.141Z,99.90
2022-09-21T05:18:22.185Z,99.90
2022-09-21T05:23:25.199Z,99.90
2022-09-21T05:28:28.391Z,99.90
2022-09-21T05:33:33.771Z,99.90
2022-09-21T05:38:36.522Z,99.90
2022-09-21T05:43:39.783Z,99.90
2022-09-21T05:48:53.355Z,99.90
2022-09-21T05:54:07.521Z,99.90
2022-09-21T05:59:37.569Z,99.90
2022-09-21T06:04:40.253Z,99.90
2022-09-21T06:09:43.403Z,99.90
2022-09-21T06:14:45.992Z,99.90
2022-09-21T06:19:48.374Z,99.90
2022-09-21T06:24:50.762Z,99.90
2022-09-21T06:29:53.177Z,99.90
2022-09-21T06:34:55.553Z,99.90
2022-09-21T06:39:58.006Z,99.90
2022-09-21T06:45:00.520Z,99.90
2022-09-21T06:50:03.404Z,99.90
2022-09-21T06:55:06.386Z,99.90
2022-09-21T07:00:11.114Z,99.90
2022-09-21T07:05:13.504Z,99.90
2022-09-21T07:10:20.515Z,99.90
2022-09-21T07:15:23.708Z,99.90
2022-09-21T07:20:26.127Z,99.90
2022-09-21T07:25:29.147Z,99.90
2022-09-21T07:30:31.574Z,99.90
2022-09-21T07:35:34.395Z,99.90
2022-09-21T07:40:36.903Z,99.90
2022-09-21T07:45:40.292Z,99.90
2022-09-21T07:50:43.104Z,99.90
2022-09-21T07:55:45.902Z,99.90
2022-09-21T08:00:48.677Z,99.90
2022-09-21T08:05:51.442Z,99.90
2022-09-21T08:10:54.644Z,99.90
2022-09-21T08:16:00.813Z,99.90
2022-09-21T08:21:03.522Z,99.90
2022-09-21T08:26:41.619Z,99.90
2022-09-21T08:37:47.929Z,99.90
2022-09-21T08:43:01.425Z,99.90
2022-09-21T08:48:10.978Z,99.90
2022-09-21T08:53:20.923Z,99.90
2022-09-21T08:58:23.414Z,99.90
2022-09-21T09:03:33.189Z,99.80
2022-09-21T09:08:44.173Z,97.50
2022-09-21T09:14:19.122Z,98.10
2022-09-21T09:19:42.533Z,96.00
2022-09-21T09:24:52.886Z,95.70
2022-09-21T09:48:27.350Z,91.70
2022-09-21T09:53:33.761Z,91.80
2022-09-21T09:58:57.620Z,90.90
2022-09-21T10:04:11.650Z,89.40
2022-09-21T10:09:41.063Z,89.00
2022-09-21T10:14:53.264Z,86.20
2022-09-21T10:20:04.268Z,87.80
2022-09-21T10:25:15.331Z,90.00
2022-09-21T10:30:32.558Z,90.30
2022-09-21T10:35:50.448Z,88.20
2022-09-21T10:40:53.712Z,86.70
2022-09-21T10:45:57.910Z,86.20
2022-09-21T10:51:00.638Z,86.90
2022-09-21T10:56:15.447Z,83.10
2022-09-21T11:01:24.525Z,82.70
2022-09-21T11:06:38.125Z,84.80
2022-09-21T11:11:56.677Z,85.60
2022-09-21T11:17:02.553Z,84.80
2022-09-21T11:22:12.043Z,86.80
2022-09-21T11:27:28.566Z,87.50
2022-09-21T11:32:52.943Z,91.00
2022-09-21T11:38:25.463Z,91.20
2022-09-21T11:43:27.802Z,91.80
2022-09-21T11:48:41.549Z,85.10
2022-09-21T11:54:13.781Z,79.90
2022-09-21T11:59:16.240Z,80.10
2022-09-21T12:04:37.742Z,82.60
2022-09-21T12:10:17.121Z,85.00
2022-09-21T12:15:46.271Z,92.80
2022-09-21T12:20:55.414Z,90.00
2022-09-21T12:26:01.556Z,92.90
2022-09-21T12:31:19.509Z,90.20
2022-09-21T12:36:24.339Z,81.50
2022-09-21T12:41:30.564Z,75.80
2022-09-21T12:46:53.025Z,70.70
2022-09-21T12:52:01.095Z,74.70
2022-09-21T12:58:10.880Z,75.60
2022-09-21T13:03:27.603Z,75.30
2022-09-21T13:08:36.781Z,78.50
2022-09-21T13:13:51.350Z,77.90
2022-09-21T13:19:06.900Z,75.50
2022-09-21T13:24:26.475Z,80.40
2022-09-21T13:29:32.864Z,87.90
2022-09-21T13:34:38.537Z,90.40
2022-09-21T13:40:02.977Z,91.40
2022-09-21T13:45:18.797Z,92.80
2022-09-21T13:50:39.249Z,88.20
2022-09-21T13:55:50.538Z,77.00
2022-09-21T14:00:57.278Z,77.50
2022-09-21T14:06:08.846Z,67.80
2022-09-21T14:11:18.367Z,58.90
2022-09-21T14:16:47.441Z,55.10
2022-09-21T14:22:08.052Z,46.00
2022-09-21T14:27:45.456Z,42.70
2022-09-21T14:33:00.169Z,42.90
2022-09-21T14:38:14.741Z,43.50
2022-09-21T14:43:30.108Z,43.50
2022-09-21T14:48:54.284Z,42.50
2022-09-21T14:54:02.588Z,42.30
2022-09-21T14:59:34.948Z,42.40
2022-09-21T15:04:46.636Z,42.20
2022-09-21T15:10:44.320Z,45.80
2022-09-21T15:16:01.304Z,48.60
2022-09-21T15:21:04.832Z,54.00
2022-09-21T15:26:29.905Z,49.00
2022-09-21T15:31:40.411Z,49.00
2022-09-21T15:36:44.365Z,52.00
2022-09-21T15:41:49.434Z,54.00
2022-09-21T15:46:57.979Z,53.50
2022-09-21T15:52:25.442Z,57.20
2022-09-21T15:57:40.408Z,56.90
2022-09-21T16:02:58.700Z,56.90
2022-09-21T16:08:17.929Z,58.50
2022-09-21T16:13:43.790Z,56.80
2022-09-21T16:18:49.231Z,60.30
2022-09-21T16:23:55.494Z,67.00
2022-09-21T16:29:23.531Z,73.00
2022-09-21T16:34:35.266Z,75.30
2022-09-21T16:39:37.658Z,79.80
2022-09-21T16:44:44.852Z,83.70
2022-09-21T16:49:47.213Z,86.60
2022-09-21T16:54:50.782Z,89.60
2022-09-21T16:59:53.207Z,90.60
2022-09-21T17:04:55.524Z,91.40
2022-09-21T17:09:58.422Z,92.30
2022-09-21T17:15:00.882Z,92.70
2022-09-21T17:20:15.414Z,94.10
2022-09-21T17:25:17.746Z,95.00
2022-09-21T17:30:21.164Z,95.00
2022-09-21T17:35:38.776Z,95.40
2022-09-21T17:40:42.655Z,96.90
2022-09-21T17:45:51.406Z,96.90
2022-09-21T17:50:54.088Z,97.40
2022-09-21T17:56:13.057Z,97.80
2022-09-21T18:01:31.461Z,98.10
2022-09-21T18:06:34.359Z,97.80
2022-09-21T18:12:02.657Z,97.80
2022-09-21T18:17:33.258Z,97.70
2022-09-21T18:22:54.202Z,97.90
2022-09-21T18:27:58.854Z,97.60
2022-09-21T18:33:19.117Z,97.70
2022-09-21T18:38:45.992Z,98.40
2022-09-21T18:44:23.604Z,99.40
2022-09-21T18:49:46.481Z,99.90
2022-09-21T18:54:49.292Z,99.90
2022-09-21T18:59:52.067Z,99.90
2022-09-21T19:04:54.672Z,99.90
2022-09-21T19:10:23.087Z,99.90
2022-09-21T19:15:59.362Z,99.90
2022-09-21T19:21:16.147Z,99.90
2022-09-21T19:26:47.978Z,99.90
2022-09-21T19:31:50.474Z,99.90
2022-09-21T19:36:52.940Z,99.90
2022-09-21T19:42:00.895Z,99.90
2022-09-21T19:47:16.659Z,99.90
2022-09-21T19:52:26.755Z,99.90
2022-09-21T19:57:48.436Z,99.90
2022-09-21T20:03:31.212Z,99.90
2022-09-21T20:08:42.947Z,99.90
2022-09-21T20:13:57.817Z,99.90
2022-09-21T20:19:04.154Z,99.90
2022-09-21T20:24:34.507Z,99.90
2022-09-21T20:29:37.123Z,99.90
2022-09-21T20:34:41.001Z,99.90
2022-09-21T20:39:43.462Z,99.90
2022-09-21T20:44:45.835Z,99.90
2022-09-21T20:49:49.125Z,99.90
2022-09-21T20:54:51.708Z,99.90
2022-09-21T20:59:54.050Z,99.90
2022-09-21T21:04:56.743Z,99.90
2022-09-21T21:09:59.149Z,99.90
2022-09-21T21:15:01.546Z,99.90
2022-09-21T21:20:06.022Z,99.90
2022-09-21T21:25:09.018Z,99.90
2022-09-21T21:30:11.981Z,99.90
2022-09-21T21:35:14.551Z,99.90
2022-09-21T21:40:17.121Z,99.90
2022-09-21T21:45:21.512Z,99.90
2022-09-21T21:50:23.964Z,99.90
2022-09-21T21:55:26.409Z,99.90
2022-09-21T22:00:28.965Z,99.90
2022-09-21T22:05:31.286Z,99.90
2022-09-21T22:10:34.764Z,99.90
2022-09-21T22:15:37.128Z,99.90
2022-09-21T22:20:40.839Z,99.90
2022-09-21T22:25:43.184Z,99.90
2022-09-21T22:30:49.929Z,99.90
2022-09-21T22:35:52.266Z,99.90
2022-09-21T22:40:54.683Z,99.90
2022-09-21T22:45:57.103Z,99.90
2022-09-21T22:50:59.692Z,99.90
2022-09-21T22:56:10.718Z,99.90
2022-09-21T23:01:18.166Z,99.90
2022-09-21T23:06:22.320Z,99.90
2022-09-21T23:11:29.155Z,99.90
2022-09-21T23:16:31.709Z,99.90
2022-09-21T23:21:34.394Z,99.90
2022-09-21T23:26:36.903Z,99.90
2022-09-21T23:31:44.435Z,99.90
2022-09-21T23:36:47.312Z,99.90
2022-09-21T23:41:49.639Z,99.90
2022-09-21T23:46:52.004Z,99.90
2022-09-21T23:51:54.413Z,99.90
2022-09-21T23:56:56.787Z,99.90
